Time;durP1;ratioP1;P1;durP2;ratioP2;P2;SDS_P1;SDS_P2;PMS_P1;PMS_P2;Temp;Humidity;BMP_temperature;BMP_pressure;BME280_temperature;BME280_humidity;BME280_pressure;Samples;Min_cycle;Max_cycle;Signal;HPM_P1;HPM_P2
2023/06/09 00:01:13;;;;;;;5.90;3.33;;;;;;;23.08;47.41;101393.28;5010596;28;20034;-65
2023/06/09 00:03:39;;;;;;;7.57;3.38;;;;;;;23.09;47.44;101396.78;5013054;28;20374;-66
2023/06/09 00:06:05;;;;;;;5.90;3.15;;;;;;;23.09;47.76;101397.59;5011110;28;20852;-65
2023/06/09 00:08:31;;;;;;;6.13;3.60;;;;;;;23.09;47.34;101399.44;5012231;28;20041;-67
2023/06/09 00:10:56;;;;;;;5.47;3.30;;;;;;;23.08;47.30;101384.44;5010988;28;20025;-66
2023/06/09 00:13:22;;;;;;;6.57;3.30;;;;;;;23.08;47.54;101390.63;5011689;28;20065;-66
2023/06/09 00:15:47;;;;;;;10.32;3.50;;;;;;;23.09;46.90;101397.59;5010464;28;20103;-66
2023/06/09 00:18:15;;;;;;;5.20;2.88;;;;;;;23.08;47.53;101395.06;5010940;28;20042;-66
2023/06/09 00:20:42;;;;;;;6.68;3.47;;;;;;;23.09;47.13;101394.94;5011796;28;20033;-69
2023/06/09 00:23:08;;;;;;;6.15;3.45;;;;;;;23.08;47.14;101395.06;5010804;28;20033;-67
2023/06/09 00:25:35;;;;;;;5.88;3.97;;;;;;;23.04;47.26;101389.19;5009739;28;20034;-69
2023/06/09 00:28:00;;;;;;;5.95;3.17;;;;;;;23.05;47.09;101396.19;5011700;28;20051;-66
2023/06/09 00:30:26;;;;;;;7.65;3.40;;;;;;;23.07;46.88;101385.41;5011274;28;20033;-66
2023/06/09 00:32:51;;;;;;;5.45;3.17;;;;;;;23.04;47.31;101385.72;5011098;28;20488;-67
2023/06/09 00:35:16;;;;;;;6.07;3.40;;;;;;;23.05;46.66;101382.03;5010833;28;20056;-67
2023/06/09 00:37:42;;;;;;;5.38;3.15;;;;;;;23.04;46.90;101378.56;5011430;28;20283;-69
2023/06/09 00:40:08;;;;;;;7.15;3.28;;;;;;;23.06;46.73;101378.41;5011213;28;20076;-66
2023/06/09 00:42:33;;;;;;;7.68;3.20;;;;;;;23.07;46.75;101380.09;5011214;28;20108;-67
2023/06/09 00:44:59;;;;;;;5.30;3.00;;;;;;;23.08;46.26;101387.09;5011282;28;20162;-66
2023/06/09 00:47:26;;;;;;;6.95;3.25;;;;;;;23.07;46.62;101386.25;5011752;28;20278;-67
2023/06/09 00:49:51;;;;;;;7.25;3.45;;;;;;;23.05;46.65;101385.56;5010435;28;20037;-67
2023/06/09 00:52:17;;;;;;;5.28;2.80;;;;;;;23.04;46.20;101381.22;5011046;28;20411;-66
2023/06/09 00:54:43;;;;;;;5.63;2.95;;;;;;;23.07;46.37;101385.41;5010521;28;20382;-67
2023/06/09 00:57:10;;;;;;;9.25;3.30;;;;;;;23.05;46.31;101376.72;5011589;28;20034;-67
2023/06/09 00:59:36;;;;;;;5.47;2.85;;;;;;;23.03;46.14;101376.03;5014923;28;20121;-65
2023/06/09 01:02:05;;;;;;;6.53;2.90;;;;;;;23.04;45.95;101377.72;5015027;28;20162;-68
2023/06/09 01:04:34;;;;;;;5.93;3.08;;;;;;;23.05;46.26;101374.94;5014766;28;20041;-67
2023/06/09 01:07:22;;;;;;;5.68;3.03;;;;;;;23.02;46.33;101364.59;5015220;28;20108;-68
2023/06/09 01:10:09;;;;;;;6.28;3.75;;;;;;;23.06;45.93;101367.78;5014229;28;20052;-68
2023/06/09 01:12:46;;;;;;;7.25;3.20;;;;;;;23.04;46.01;101375.91;5015481;28;20037;-66
2023/06/09 01:15:25;;;;;;;7.20;3.45;;;;;;;23.02;45.76;101372.56;5014395;28;20517;-66
2023/06/09 01:17:54;;;;;;;7.78;3.17;;;;;;;23.04;45.94;101372.41;5014567;28;20104;-69
2023/06/09 01:20:46;;;;;;;6.47;3.10;;;;;;;23.03;45.73;101363.59;5014924;28;20044;-66
2023/06/09 01:23:33;;;;;;;5.20;2.95;;;;;;;23.01;46.21;101371.69;5015136;28;20033;-68
2023/06/09 01:25:59;;;;;;;7.00;3.35;;;;;;;23.02;45.84;101361.91;5015312;28;20040;-65
2023/06/09 01:28:26;;;;;;;6.65;3.13;;;;;;;23.02;45.53;101356.59;5014527;28;20087;-66
2023/06/09 01:30:54;;;;;;;6.40;2.72;;;;;;;23.01;45.82;101360.25;5014740;28;20111;-67
2023/06/09 01:33:22;;;;;;;6.65;3.00;;;;;;;23.00;45.43;101356.75;5015192;28;20112;-66
2023/06/09 01:35:48;;;;;;;5.00;2.97;;;;;;;23.01;45.78;101357.59;5014426;28;20030;-67
2023/06/09 01:38:14;;;;;;;6.20;3.10;;;;;;;22.99;45.77;101357.72;5014349;28;20284;-69
2023/06/09 01:40:40;;;;;;;6.47;3.28;;;;;;;22.99;45.47;101356.91;5014531;28;20063;-68
2023/06/09 01:43:06;;;;;;;7.05;2.90;;;;;;;23.00;45.32;101354.09;5014084;28;20029;-66
2023/06/09 01:45:32;;;;;;;5.22;3.17;;;;;;;23.00;45.82;101350.56;5014792;28;20108;-68
2023/06/09 01:47:57;;;;;;;5.63;3.00;;;;;;;22.98;45.34;101364.00;5014313;28;20489;-69
2023/06/09 01:50:40;;;;;;;5.25;3.10;;;;;;;22.95;45.66;101352.84;5014147;28;20040;-67
2023/06/09 01:53:15;;;;;;;5.55;2.63;;;;;;;22.97;45.43;101354.38;5014540;28;20057;-69
2023/06/09 01:56:07;;;;;;;6.43;3.13;;;;;;;22.97;45.54;101350.88;5014434;28;20037;-68
2023/06/09 01:58:40;;;;;;;5.50;2.90;;;;;;;22.95;45.28;101347.53;5013949;28;20041;-66
2023/06/09 02:01:07;;;;;;;5.75;3.08;;;;;;;22.97;45.37;101353.53;5014140;28;20037;-66
2023/06/09 02:03:37;;;;;;;6.10;2.80;;;;;;;22.98;45.21;101356.03;5013516;28;20438;-66
2023/06/09 02:06:04;;;;;;;7.03;3.28;;;;;;;22.96;45.37;101350.03;5014051;28;20055;-68
2023/06/09 02:08:30;;;;;;;5.68;2.80;;;;;;;22.97;44.96;101356.19;5013956;28;20037;-68
2023/06/09 02:10:56;;;;;;;5.95;2.75;;;;;;;22.91;45.37;101344.31;5014326;28;20034;-67
2023/06/09 02:13:21;;;;;;;7.38;3.17;;;;;;;22.96;44.77;101338.56;5012416;28;20033;-67
2023/06/09 02:15:47;;;;;;;5.13;2.80;;;;;;;22.94;45.15;101344.03;5013723;28;20073;-67
2023/06/09 02:18:15;;;;;;;5.15;3.05;;;;;;;22.88;45.35;101331.31;5013149;28;20297;-66
2023/06/09 02:20:42;;;;;;;8.57;3.35;;;;;;;22.97;44.79;101342.88;5013773;28;20516;-67
2023/06/09 02:23:07;;;;;;;5.82;2.95;;;;;;;22.96;44.87;101341.25;5013977;28;20037;-66
2023/06/09 02:25:33;;;;;;;6.97;3.45;;;;;;;22.95;44.76;101332.41;5013572;28;20033;-68
2023/06/09 02:28:01;;;;;;;5.43;2.80;;;;;;;22.93;44.69;101333.56;5012280;28;20040;-66
2023/06/09 02:30:27;;;;;;;6.90;2.97;;;;;;;22.92;44.76;101335.38;5013996;28;20037;-67
2023/06/09 02:32:53;;;;;;;5.57;2.80;;;;;;;22.94;44.63;101335.22;5013084;28;20041;-68
2023/06/09 02:35:18;;;;;;;6.25;3.17;;;;;;;22.94;44.88;101333.41;5013631;28;20130;-66
2023/06/09 02:37:44;;;;;;;5.32;2.80;;;;;;;22.95;44.79;101336.88;5013061;28;20044;-67
2023/06/09 02:40:10;;;;;;;7.22;3.00;;;;;;;22.94;44.87;101336.06;5013852;28;20417;-67
2023/06/09 02:42:35;;;;;;;6.13;2.67;;;;;;;22.90;44.79;101334.66;5013516;28;20080;-66
2023/06/09 02:45:01;;;;;;;5.87;3.10;;;;;;;22.93;45.18;101337.03;5013558;28;20124;-67
2023/06/09 02:47:26;;;;;;;4.82;2.72;;;;;;;22.94;44.32;101329.88;5012914;28;20377;-66
2023/06/09 02:49:51;;;;;;;6.95;3.15;;;;;;;22.94;44.36;101333.41;5012970;28;20478;-67
2023/06/09 02:52:17;;;;;;;6.65;3.33;;;;;;;22.93;44.44;101330.91;5013002;28;20029;-66
2023/06/09 02:54:43;;;;;;;5.43;2.75;;;;;;;22.91;44.76;101328.38;5013522;28;20044;-66
2023/06/09 02:57:09;;;;;;;6.25;2.80;;;;;;;22.92;44.69;101326.53;5013037;28;20112;-66
2023/06/09 02:59:34;;;;;;;5.55;2.95;;;;;;;22.91;44.34;101331.03;5012567;28;21060;-68
2023/06/09 03:01:59;;;;;;;5.90;2.80;;;;;;;22.93;44.54;101333.56;5011686;28;20041;-66
2023/06/09 03:04:25;;;;;;;5.75;3.03;;;;;;;22.92;44.58;101331.88;5012381;28;20036;-67
2023/06/09 03:06:53;;;;;;;5.55;2.75;;;;;;;22.90;44.59;101333.84;5011716;28;20038;-66
2023/06/09 03:09:18;;;;;;;5.88;3.13;;;;;;;22.91;44.14;101332.88;5003753;28;20124;-66
2023/06/09 03:11:44;;;;;;;8.55;3.13;;;;;;;22.90;44.17;101334.66;5013227;28;20112;-68
2023/06/09 03:14:09;;;;;;;6.10;2.85;;;;;;;22.90;44.53;101337.31;5011683;28;20033;-68
2023/06/09 03:16:34;;;;;;;7.18;3.22;;;;;;;22.91;44.16;101348.81;5012776;28;20493;-66
2023/06/09 03:19:00;;;;;;;7.40;3.13;;;;;;;22.90;44.54;101336.50;5012826;28;20084;-67
2023/06/09 03:21:26;;;;;;;6.50;2.92;;;;;;;22.88;44.35;101335.81;5011897;28;20029;-67
2023/06/09 03:23:51;;;;;;;6.25;3.15;;;;;;;22.90;44.56;101342.63;5012928;28;20445;-67
2023/06/09 03:26:17;;;;;;;5.75;3.30;;;;;;;22.91;44.36;101339.00;5012658;28;20124;-66
2023/06/09 03:28:43;;;;;;;5.13;3.03;;;;;;;22.91;44.17;101344.31;5012412;28;20033;-67
2023/06/09 03:31:09;;;;;;;8.45;2.72;;;;;;;22.88;44.47;101335.81;5012354;28;20364;-68
2023/06/09 03:33:34;;;;;;;5.00;2.90;;;;;;;22.87;44.16;101342.91;5012575;28;20073;-66
2023/06/09 03:35:59;;;;;;;6.00;2.60;;;;;;;22.90;43.99;101347.94;5012572;28;20033;-67
2023/06/09 03:38:25;;;;;;;7.65;3.00;;;;;;;22.90;44.11;101347.13;5012576;28;20469;-67
2023/06/09 03:40:50;;;;;;;7.10;3.30;;;;;;;22.89;44.11;101342.78;5012603;28;20070;-67
2023/06/09 03:43:15;;;;;;;6.45;3.05;;;;;;;22.87;44.13;101329.63;5012827;28;21240;-68
2023/06/09 03:45:41;;;;;;;5.70;2.80;;;;;;;22.88;44.02;101349.94;5012301;28;20355;-67
2023/06/09 03:48:06;;;;;;;6.20;2.90;;;;;;;22.83;43.97;101350.34;5011468;28;20529;-67
2023/06/09 03:50:32;;;;;;;7.40;3.47;;;;;;;22.88;44.18;101363.22;5011923;28;20029;-66
2023/06/09 03:52:58;;;;;;;6.95;2.95;;;;;;;22.85;44.30;101363.50;5012457;28;20038;-68
2023/06/09 03:55:24;;;;;;;5.82;3.20;;;;;;;22.85;44.11;101371.47;5011929;28;20045;-66
2023/06/09 03:57:50;;;;;;;6.22;2.85;;;;;;;22.88;43.86;101359.72;5011782;28;20978;-67
2023/06/09 04:00:17;;;;;;;6.40;3.30;;;;;;;22.87;44.07;101363.34;5012066;28;20072;-66
2023/06/09 04:02:43;;;;;;;4.82;2.53;;;;;;;22.87;44.13;101364.19;5011409;28;20470;-67
2023/06/09 04:05:08;;;;;;;7.10;2.85;;;;;;;22.86;44.12;101356.34;5011668;28;20045;-68
2023/06/09 04:07:34;;;;;;;6.27;2.70;;;;;;;22.85;44.18;101366.16;5011624;28;20032;-65
2023/06/09 04:09:59;;;;;;;6.25;3.10;;;;;;;22.85;43.92;101362.66;5011798;28;20269;-67
2023/06/09 04:12:25;;;;;;;6.40;2.85;;;;;;;22.86;43.61;101361.66;5011881;28;20040;-66
2023/06/09 04:14:50;;;;;;;5.63;2.90;;;;;;;22.81;44.37;101362.09;5011810;28;20420;-67
2023/06/09 04:17:15;;;;;;;5.87;2.97;;;;;;;22.81;44.23;101357.63;5011421;28;20030;-67
2023/06/09 04:19:41;;;;;;;7.15;2.75;;;;;;;22.84;44.24;101364.47;5011298;28;20739;-67
2023/06/09 04:22:07;;;;;;;6.43;3.05;;;;;;;22.83;44.09;101368.13;5011592;28;20033;-66
2023/06/09 04:24:33;;;;;;;6.53;2.92;;;;;;;22.81;43.85;101364.75;5011319;28;20038;-67
2023/06/09 04:26:58;;;;;;;7.10;3.63;;;;;;;22.82;43.72;101371.75;5012063;28;20030;-69
2023/06/09 04:29:25;;;;;;;5.68;2.80;;;;;;;22.81;43.97;101367.41;5010662;28;20898;-67
2023/06/09 04:31:58;;;;;;;6.28;3.10;;;;;;;22.79;44.05;101364.06;5010736;28;20033;-67
2023/06/09 04:34:25;;;;;;;7.82;3.17;;;;;;;22.80;44.08;101365.75;5011451;28;20829;-65
2023/06/09 04:36:52;;;;;;;6.70;3.10;;;;;;;22.79;43.91;101364.06;5011522;28;20025;-67
2023/06/09 04:39:19;;;;;;;5.50;3.00;;;;;;;22.76;44.13;101370.50;5011421;28;20044;-67
2023/06/09 04:41:47;;;;;;;5.53;2.88;;;;;;;22.78;43.77;101371.22;5011224;28;20087;-69
2023/06/09 04:44:13;;;;;;;6.30;2.97;;;;;;;22.79;43.78;101372.03;5011393;28;20030;-68
2023/06/09 04:46:39;;;;;;;7.45;3.00;;;;;;;22.75;44.18;101365.34;5011520;28;20088;-69
2023/06/09 04:49:10;;;;;;;6.40;3.30;;;;;;;22.78;43.67;101373.00;5011061;28;20042;-66
2023/06/09 04:51:47;;;;;;;5.40;2.55;;;;;;;22.74;44.14;101367.16;5011206;28;20121;-67
2023/06/09 04:54:13;;;;;;;5.57;3.15;;;;;;;22.75;44.26;101368.84;5011486;28;20030;-67
2023/06/09 04:56:40;;;;;;;7.30;3.17;;;;;;;22.75;44.20;101375.97;5011902;28;20044;-67
2023/06/09 04:59:06;;;;;;;7.20;3.75;;;;;;;22.72;44.01;101369.13;5010439;28;20061;-69
2023/06/09 05:01:33;;;;;;;7.50;3.33;;;;;;;22.77;43.98;101374.00;5011065;28;20061;-67
2023/06/09 05:03:59;;;;;;;7.18;3.20;;;;;;;22.77;43.82;101374.00;5010964;28;20450;-67
2023/06/09 05:06:25;;;;;;;7.35;2.97;;;;;;;22.77;43.85;101374.00;5010891;28;20132;-68
2023/06/09 05:08:51;;;;;;;7.80;3.42;;;;;;;22.71;43.91;101378.06;5011176;28;20032;-66
2023/06/09 05:11:16;;;;;;;5.50;2.72;;;;;;;22.72;44.23;101378.91;5011198;28;20116;-67
2023/06/09 05:13:42;;;;;;;6.03;2.90;;;;;;;22.73;43.78;101384.09;5011080;28;20133;-65
2023/06/09 05:16:07;;;;;;;5.70;3.00;;;;;;;22.74;43.87;101375.13;5010957;28;20050;-68
2023/06/09 05:18:32;;;;;;;5.97;2.90;;;;;;;22.74;43.87;101374.28;5010479;28;20786;-66
2023/06/09 05:20:57;;;;;;;6.57;3.63;;;;;;;22.70;43.97;101379.06;5011127;28;20259;-67
2023/06/09 05:23:23;;;;;;;6.68;3.25;;;;;;;22.71;44.16;101375.41;5011289;28;20273;-66
2023/06/09 05:25:49;;;;;;;6.38;3.20;;;;;;;22.70;44.30;101383.50;5010498;28;20033;-65
2023/06/09 05:28:14;;;;;;;6.88;3.47;;;;;;;22.73;43.85;101389.41;5010910;28;21351;-67
2023/06/09 05:30:40;;;;;;;6.55;3.00;;;;;;;22.70;43.60;101389.69;5010939;28;20073;-65
2023/06/09 05:33:06;;;;;;;6.78;2.95;;;;;;;22.71;44.43;101380.72;5010644;28;20592;-69
2023/06/09 05:35:32;;;;;;;5.10;2.83;;;;;;;22.70;44.51;101379.06;5010728;28;20117;-66
2023/06/09 05:37:57;;;;;;;7.10;3.30;;;;;;;22.70;44.36;101379.06;5011083;28;20204;-66
2023/06/09 05:40:23;;;;;;;6.10;3.10;;;;;;;22.72;44.36;101387.72;5011058;28;20098;-66
2023/06/09 05:42:49;;;;;;;5.85;2.90;;;;;;;22.72;44.56;101386.88;5010449;28;20432;-68
2023/06/09 05:45:15;;;;;;;5.07;3.05;;;;;;;22.71;44.48;101390.50;5014692;28;20050;-68
2023/06/09 05:47:40;;;;;;;6.20;2.75;;;;;;;22.70;44.35;101387.03;5013709;28;20033;-66
2023/06/09 05:50:06;;;;;;;6.15;3.05;;;;;;;22.68;44.39;101391.63;5014571;28;20030;-67
2023/06/09 05:52:31;;;;;;;6.05;3.30;;;;;;;22.68;44.53;101383.66;5014685;28;20475;-67
2023/06/09 05:54:56;;;;;;;7.73;3.47;;;;;;;22.68;44.63;101378.34;5014390;28;20038;-65
2023/06/09 05:57:22;;;;;;;6.70;3.17;;;;;;;22.69;44.45;101387.16;5014057;28;20278;-67
2023/06/09 05:59:52;;;;;;;8.52;3.33;;;;;;;22.72;44.11;101390.38;5014386;28;20044;-67
2023/06/09 06:02:18;;;;;;;10.40;4.78;;;;;;;22.75;43.47;101383.94;5013041;28;20030;-66
2023/06/09 06:04:43;;;;;;;11.82;5.25;;;;;;;22.76;43.23;101382.94;5014216;28;20045;-68
2023/06/09 06:07:08;;;;;;;10.83;4.90;;;;;;;22.69;43.44;101377.38;5014299;28;20038;-68
2023/06/09 06:09:34;;;;;;;10.77;4.28;;;;;;;22.73;43.80;101385.88;5014042;28;20389;-67
2023/06/09 06:11:59;;;;;;;10.18;3.97;;;;;;;22.71;44.10;101382.53;5013726;28;20037;-68
2023/06/09 06:14:24;;;;;;;8.80;3.95;;;;;;;22.69;43.84;101382.69;5013818;28;20107;-68
2023/06/09 06:16:50;;;;;;;9.20;4.27;;;;;;;22.71;43.97;101377.22;5014203;28;20049;-67
2023/06/09 06:19:15;;;;;;;7.70;3.93;;;;;;;22.65;44.47;101373.31;5013932;28;20290;-68
2023/06/09 06:21:42;;;;;;;8.33;3.63;;;;;;;22.66;44.59;101377.66;5013926;28;20283;-67
2023/06/09 06:24:08;;;;;;;7.72;3.80;;;;;;;22.68;44.37;101388.97;5013674;28;20271;-66
2023/06/09 06:26:34;;;;;;;10.05;4.00;;;;;;;22.69;44.44;101390.66;5013430;28;20560;-67
2023/06/09 06:29:00;;;;;;;8.93;3.65;;;;;;;22.68;44.56;101385.47;5013899;28;20029;-67
2023/06/09 06:31:28;;;;;;;9.77;4.90;;;;;;;22.67;44.18;101384.66;5011591;28;20060;-69
2023/06/09 06:33:53;;;;;;;13.63;5.75;;;;;;;22.69;44.27;101387.16;5012185;28;20048;-71
2023/06/09 06:36:21;;;;;;;9.85;5.75;;;;;;;22.69;44.08;101382.69;5012991;28;21198;-73
2023/06/09 06:38:46;;;;;;;10.80;6.05;;;;;;;22.67;44.39;101373.16;5012576;28;20037;-65
2023/06/09 06:41:12;;;;;;;14.70;6.03;;;;;;;22.69;44.37;101395.97;5012405;28;20096;-66
2023/06/09 06:43:37;;;;;;;12.20;5.85;;;;;;;22.70;44.64;101383.50;5012634;28;20029;-67
2023/06/09 06:46:02;;;;;;;13.77;6.40;;;;;;;22.69;44.91;101388.00;5012816;28;20448;-68
2023/06/09 06:48:28;;;;;;;13.65;6.00;;;;;;;22.68;44.78;101381.00;5010748;28;20287;-66
2023/06/09 06:50:53;;;;;;;10.65;5.00;;;;;;;22.68;44.90;101383.66;5011738;28;20037;-67
2023/06/09 06:53:18;;;;;;;14.53;5.60;;;;;;;22.64;45.20;101376.97;5011471;28;20057;-69
2023/06/09 06:55:43;;;;;;;10.77;5.68;;;;;;;22.66;45.25;101379.47;5011875;28;20259;-67
2023/06/09 06:58:09;;;;;;;10.97;5.10;;;;;;;22.68;45.05;101388.97;5011457;28;20030;-66
2023/06/09 07:00:35;;;;;;;11.43;5.78;;;;;;;22.69;45.42;101376.53;5013073;28;20894;-67
2023/06/09 07:03:03;;;;;;;13.80;6.50;;;;;;;22.68;45.50;101381.00;5013641;28;20022;-68
2023/06/09 07:05:28;;;;;;;12.38;6.60;;;;;;;22.69;45.38;101382.69;5013046;28;20120;-68
2023/06/09 07:07:53;;;;;;;12.45;5.30;;;;;;;22.67;45.47;101382.00;5013086;28;20153;-68
2023/06/09 07:10:19;;;;;;;11.67;5.70;;;;;;;22.69;45.49;101390.66;5012821;28;20033;-67
2023/06/09 07:12:44;;;;;;;10.43;5.32;;;;;;;22.70;45.33;101392.34;5012539;28;20298;-67
2023/06/09 07:15:10;;;;;;;11.63;5.30;;;;;;;22.71;45.41;101396.66;5012632;28;20471;-66
2023/06/09 07:17:35;;;;;;;11.57;5.43;;;;;;;22.69;45.68;101393.31;5012682;28;20052;-68
2023/06/09 07:20:00;;;;;;;10.35;4.90;;;;;;;22.71;45.78;101396.66;5012753;28;20038;-68
2023/06/09 07:22:26;;;;;;;10.35;5.40;;;;;;;22.69;45.66;101393.31;5012559;28;20030;-68
2023/06/09 07:24:52;;;;;;;9.65;5.07;;;;;;;22.72;46.23;101397.50;5010854;28;20037;-67
2023/06/09 07:27:17;;;;;;;11.80;5.82;;;;;;;22.71;46.48;101401.13;5011760;28;20042;-69
2023/06/09 07:29:43;;;;;;;11.70;5.50;;;;;;;22.68;46.98;101393.44;5012049;28;20119;-70
2023/06/09 07:32:09;;;;;;;17.02;7.50;;;;;;;22.67;49.99;101389.97;5011962;28;20068;-68
2023/06/09 07:34:35;;;;;;;16.27;7.05;;;;;;;22.68;51.32;101393.44;5012653;28;20104;-71
2023/06/09 07:37:03;;;;;;;11.25;6.53;;;;;;;22.69;51.35;101392.47;5011908;28;20033;-69
2023/06/09 07:39:29;;;;;;;12.98;6.28;;;;;;;22.72;51.42;101402.84;5012462;28;20033;-68
2023/06/09 07:41:54;;;;;;;12.10;6.07;;;;;;;22.71;51.71;101395.81;5012541;28;20484;-70
2023/06/09 07:44:20;;;;;;;12.77;6.22;;;;;;;22.73;51.44;101393.84;5011662;28;20458;-68
2023/06/09 07:46:45;;;;;;;12.05;5.70;;;;;;;22.76;51.48;101398.88;5012534;28;20025;-68
2023/06/09 07:49:11;;;;;;;18.90;5.88;;;;;;;22.80;51.33;101397.63;5009982;28;20770;-68
2023/06/09 07:51:37;;;;;;;12.07;5.82;;;;;;;22.90;50.04;101392.31;5010222;28;20029;-67
2023/06/09 07:54:05;;;;;;;13.13;5.85;;;;;;;23.00;49.17;101387.78;5010931;28;20442;-67
2023/06/09 07:56:31;;;;;;;13.20;5.90;;;;;;;23.09;49.06;101396.78;5011381;28;20090;-66
2023/06/09 07:58:57;;;;;;;9.50;5.22;;;;;;;23.14;48.69;101386.53;5011282;28;20172;-66
2023/06/09 08:01:23;;;;;;;11.05;5.68;;;;;;;23.14;48.67;101382.03;5011274;28;20503;-68
2023/06/09 08:03:48;;;;;;;11.00;5.07;;;;;;;23.17;48.21;101384.41;5010654;28;20122;-66
2023/06/09 08:06:14;;;;;;;10.47;5.13;;;;;;;23.21;48.33;101382.31;5011208;28;20041;-70
2023/06/09 08:08:41;;;;;;;9.32;5.07;;;;;;;23.23;48.27;101388.31;5011109;28;20275;-66
2023/06/09 08:11:06;;;;;;;10.85;5.05;;;;;;;23.22;47.60;101386.63;5010632;28;20478;-64
2023/06/09 08:13:31;;;;;;;8.63;4.90;;;;;;;23.24;47.80;101389.16;5009309;28;20041;-67
2023/06/09 08:15:57;;;;;;;9.13;5.10;;;;;;;23.29;47.95;101382.44;5010601;28;20056;-66
2023/06/09 08:18:22;;;;;;;12.17;5.13;;;;;;;23.28;48.11;101383.41;5010368;28;20417;-68
2023/06/09 08:20:48;;;;;;;9.65;5.60;;;;;;;23.29;48.33;101378.91;5010394;28;20263;-68
2023/06/09 08:23:13;;;;;;;7.80;4.57;;;;;;;23.31;48.01;101379.63;5009612;28;20088;-68
2023/06/09 08:25:39;;;;;;;10.68;5.10;;;;;;;23.33;48.11;101383.78;5009460;28;20104;-68
2023/06/09 08:28:04;;;;;;;11.40;5.10;;;;;;;23.31;47.89;101364.50;5010554;28;20041;-66
2023/06/09 08:30:31;;;;;;;10.45;4.95;;;;;;;23.35;47.68;101367.69;5011098;28;20140;-67
2023/06/09 08:32:57;;;;;;;9.65;4.88;;;;;;;23.34;47.21;101366.88;5011645;28;20080;-67
2023/06/09 08:35:22;;;;;;;8.07;4.60;;;;;;;23.35;47.46;101373.00;5010517;28;20136;-67
2023/06/09 08:37:48;;;;;;;7.88;4.78;;;;;;;23.35;47.29;101367.69;5011178;28;20366;-66
2023/06/09 08:40:13;;;;;;;7.47;4.70;;;;;;;23.39;47.35;101373.56;5009850;28;20057;-67
2023/06/09 08:42:39;;;;;;;9.65;5.10;;;;;;;23.40;47.37;101376.09;5010906;28;20116;-65
2023/06/09 08:45:05;;;;;;;7.38;4.30;;;;;;;23.42;47.17;101373.28;5010086;28;20053;-69
2023/06/09 08:47:32;;;;;;;9.25;4.45;;;;;;;23.42;47.30;101374.13;5010142;28;20044;-66
2023/06/09 08:49:59;;;;;;;8.45;4.43;;;;;;;23.46;46.96;101372.00;5010474;28;20767;-65
2023/06/09 08:52:25;;;;;;;7.65;4.35;;;;;;;23.48;46.74;101367.34;5009569;28;20083;-66
2023/06/09 08:54:51;;;;;;;9.27;4.35;;;;;;;23.48;46.76;101370.88;5010098;28;20049;-66
2023/06/09 08:57:18;;;;;;;7.45;4.57;;;;;;;23.49;47.11;101374.34;5009658;28;20044;-65
2023/06/09 08:59:46;;;;;;;11.05;4.97;;;;;;;23.48;47.12;101365.56;5010517;28;20385;-67
2023/06/09 09:02:11;;;;;;;8.63;4.75;;;;;;;23.51;46.79;101375.03;5009777;28;20041;-69
2023/06/09 09:04:38;;;;;;;7.45;4.57;;;;;;;23.49;46.66;101364.53;5010033;28;20032;-66
2023/06/09 09:07:05;;;;;;;9.77;4.55;;;;;;;23.46;46.49;101356.84;5010307;28;20513;-67
2023/06/09 09:09:30;;;;;;;9.20;4.43;;;;;;;23.47;46.29;101361.22;5009860;28;20824;-67
2023/06/09 09:11:59;;;;;;;8.23;4.00;;;;;;;23.47;46.36;101358.53;5025339;28;20033;-63
2023/06/09 09:14:25;;;;;;;8.63;4.07;;;;;;;23.44;46.63;101360.66;5010073;28;20124;-66
2023/06/09 09:16:50;;;;;;;6.93;4.68;;;;;;;23.45;46.89;101357.88;5009562;28;20121;-66
2023/06/09 09:19:25;;;;;;;7.73;4.10;;;;;;;23.46;46.86;101356.03;5012506;28;20057;-65
2023/06/09 09:21:50;;;;;;;8.80;3.88;;;;;;;23.47;46.15;101350.56;5014453;28;20275;-67
2023/06/09 09:24:16;;;;;;;7.93;4.57;;;;;;;23.47;46.31;101352.41;5014023;28;20393;-66
2023/06/09 09:26:41;;;;;;;7.38;4.25;;;;;;;23.50;46.40;101350.28;5014305;28;20263;-66
2023/06/09 09:29:07;;;;;;;9.25;4.22;;;;;;;23.48;46.45;101351.41;5003895;28;20496;-65
2023/06/09 09:31:33;;;;;;;6.85;4.07;;;;;;;23.48;46.22;101341.59;5013870;28;20048;-65
2023/06/09 09:34:00;;;;;;;8.10;3.97;;;;;;;23.49;46.49;101340.59;5013445;28;20299;-69
2023/06/09 09:36:26;;;;;;;6.30;3.88;;;;;;;23.52;46.20;101342.16;5013726;28;20033;-68
2023/06/09 09:38:54;;;;;;;7.82;4.38;;;;;;;23.53;46.05;101339.34;5014164;28;20037;-70
2023/06/09 09:41:20;;;;;;;6.65;4.20;;;;;;;23.59;46.25;101337.91;5012864;28;20049;-68
2023/06/09 09:43:46;;;;;;;6.38;3.83;;;;;;;23.58;46.67;101330.91;5013480;28;20114;-67
2023/06/09 09:46:11;;;;;;;7.93;4.22;;;;;;;23.60;46.36;101341.41;5014010;28;20081;-67
2023/06/09 09:48:38;;;;;;;6.05;3.90;;;;;;;23.62;46.32;101334.94;5012810;28;20065;-65
2023/06/09 09:51:04;;;;;;;6.93;4.20;;;;;;;23.62;46.38;101326.94;5013663;28;20029;-67
2023/06/09 09:53:30;;;;;;;8.68;4.00;;;;;;;23.65;46.29;101333.81;5013579;28;20386;-69
2023/06/09 09:56:00;;;;;;;8.60;3.97;;;;;;;23.65;46.81;101329.31;5012776;28;20040;-67
2023/06/09 09:58:30;;;;;;;6.65;4.10;;;;;;;23.67;46.23;101331.81;5013855;28;20097;-67
2023/06/09 10:00:58;;;;;;;6.88;4.07;;;;;;;23.66;46.75;101327.50;5013540;28;20033;-65
2023/06/09 10:03:24;;;;;;;6.55;3.83;;;;;;;23.68;46.66;101334.34;5013304;28;20042;-68
2023/06/09 10:05:50;;;;;;;6.13;3.83;;;;;;;23.69;46.29;101322.72;5013256;28;20075;-68
2023/06/09 10:08:26;;;;;;;6.82;4.15;;;;;;;23.68;46.73;101328.19;5013286;28;20312;-70
2023/06/09 10:10:52;;;;;;;6.78;3.78;;;;;;;23.71;46.41;101319.91;5013451;28;20102;-69
2023/06/09 10:13:19;;;;;;;6.00;3.78;;;;;;;23.71;46.13;101318.06;5012471;28;20478;-70
2023/06/09 10:15:45;;;;;;;7.32;4.03;;;;;;;23.74;46.54;101322.28;5013342;28;20041;-66
2023/06/09 10:18:12;;;;;;;9.35;4.72;;;;;;;23.71;46.13;101310.09;5012660;28;20076;-69
2023/06/09 10:20:40;;;;;;;8.18;4.18;;;;;;;23.77;46.65;101314.00;5012621;28;20026;-67
2023/06/09 10:23:05;;;;;;;6.68;4.28;;;;;;;23.76;46.70;101319.47;5011300;28;20022;-70
2023/06/09 10:25:31;;;;;;;7.10;4.57;;;;;;;23.77;46.59;101316.66;5013386;28;20080;-67
2023/06/09 10:27:57;;;;;;;6.18;3.78;;;;;;;23.77;46.10;101311.31;5012660;28;20053;-68
2023/06/09 10:30:22;;;;;;;6.35;3.85;;;;;;;23.78;46.30;101318.31;5011517;28;20037;-69
2023/06/09 10:32:53;;;;;;;11.90;3.80;;;;;;;23.74;46.51;101308.97;5011458;28;20075;-69
2023/06/09 10:35:24;;;;;;;5.70;3.90;;;;;;;23.79;46.13;101313.84;5012938;28;20095;-70
2023/06/09 10:37:50;;;;;;;7.97;4.13;;;;;;;23.77;46.03;101308.66;5012864;28;20040;-69
2023/06/09 10:40:45;;;;;;;7.55;4.15;;;;;;;23.78;46.12;101312.16;5012220;28;20497;-68
2023/06/09 10:43:16;;;;;;;;;;;;;;;23.86;45.98;101306.94;5013324;28;20037;-66
2023/06/09 10:45:50;;;;;;;5.85;3.83;;;;;;;23.78;45.98;101297.00;5012998;28;20684;-66
2023/06/09 10:48:38;;;;;;;;;;;;;;;23.82;45.92;101297.56;5012827;28;20500;-66
2023/06/09 10:51:29;;;;;;;6.25;3.97;;;;;;;23.78;45.66;101289.03;5012616;28;19913;-68
2023/06/09 10:54:09;;;;;;;7.15;3.88;;;;;;;23.77;45.59;101291.88;5012688;28;20042;-68
2023/06/09 10:56:35;;;;;;;7.00;4.38;;;;;;;23.78;45.86;101296.19;5012081;28;20128;-66
2023/06/09 10:59:00;;;;;;;6.10;3.85;;;;;;;23.71;45.75;101286.16;5013045;28;20550;-65
2023/06/09 11:01:25;;;;;;;6.00;4.18;;;;;;;23.71;45.49;101290.63;5012156;28;20470;-65
2023/06/09 11:03:51;;;;;;;7.80;4.07;;;;;;;23.68;45.85;101288.28;5013199;28;20542;-67
2023/06/09 11:06:16;;;;;;;5.77;3.80;;;;;;;23.64;45.46;101281.56;5012722;28;20038;-65
2023/06/09 11:09:08;;;;;;;7.70;4.10;;;;;;;23.66;45.87;101288.44;5013300;28;20266;-66
2023/06/09 11:11:53;;;;;;;7.22;3.70;;;;;;;23.68;45.63;101288.28;5011533;28;20296;-68
2023/06/09 11:14:43;;;;;;;6.78;4.60;;;;;;;23.73;45.42;101289.50;5010752;28;20385;-68
2023/06/09 11:17:16;;;;;;;6.55;4.35;;;;;;;23.73;45.81;101289.50;5012365;28;20127;-66
2023/06/09 11:19:41;;;;;;;7.90;4.05;;;;;;;23.75;45.52;101288.50;5010558;28;20038;-66
2023/06/09 11:22:09;;;;;;;8.02;4.07;;;;;;;23.72;45.71;101279.00;5012706;28;20496;-68
2023/06/09 11:24:51;;;;;;;5.50;4.05;;;;;;;23.71;45.94;101290.63;5011701;28;20030;-67